createdAt,value
2018-11-10T00:01:34.461Z,100048.48
2018-11-10T00:04:02.254Z,100047.80
2018-11-10T00:06:29.905Z,100045.77
2018-11-10T00:08:57.580Z,100044.34
2018-11-10T00:11:25.260Z,100037.24
2018-11-10T00:13:52.897Z,100035.05
2018-11-10T00:16:20.625Z,100030.59
2018-11-10T00:18:48.337Z,100026.87
2018-11-10T00:21:16.086Z,100029.90
2018-11-10T00:23:43.866Z,100022.84
2018-11-10T00:26:11.549Z,100033.69
2018-11-10T00:28:39.293Z,100018.92
2018-11-10T00:31:06.969Z,100010.41
2018-11-10T00:33:34.721Z,100015.47
2018-11-10T00:36:02.449Z,100001.75
2018-11-10T00:38:30.189Z,99999.32
2018-11-10T00:40:57.977Z,100006.58
2018-11-10T00:43:25.752Z,100003.08
2018-11-10T00:45:53.461Z,99998.99
2018-11-10T00:48:21.205Z,99989.86
2018-11-10T00:50:48.960Z,99988.16
2018-11-10T00:53:16.647Z,99999.73
2018-11-10T00:55:44.352Z,99991.18
2018-11-10T00:58:12.089Z,99988.88
2018-11-10T01:00:39.709Z,99991.72
2018-11-10T01:03:07.470Z,99982.56
2018-11-10T01:05:35.219Z,99986.84
2018-11-10T01:08:02.929Z,99993.13
2018-11-10T01:10:30.619Z,99988.84
2018-11-10T01:12:58.240Z,99980.97
2018-11-10T01:15:26.916Z,99986.12
2018-11-10T01:17:54.651Z,99975.52
2018-11-10T01:20:22.438Z,99973.05
2018-11-10T01:22:50.101Z,99980.73
2018-11-10T01:25:17.800Z,99973.58
2018-11-10T01:27:45.501Z,99970.77
2018-11-10T01:30:14.580Z,99972.31
2018-11-10T01:32:43.190Z,99968.77
2018-11-10T01:35:11.081Z,99960.66
2018-11-10T01:37:38.745Z,99951.17
2018-11-10T01:40:08.969Z,99954.72
2018-11-10T01:42:36.713Z,99953.13
2018-11-10T01:45:06.731Z,99955.10
2018-11-10T01:47:34.499Z,99961.43
2018-11-10T01:50:02.245Z,99962.77
2018-11-10T01:52:29.910Z,99956.41
2018-11-10T01:54:57.620Z,99954.81
2018-11-10T01:57:25.533Z,99942.66
2018-11-10T01:59:53.303Z,99943.44
2018-11-10T02:02:20.961Z,99938.23
2018-11-10T02:04:48.661Z,99941.39
2018-11-10T02:07:16.356Z,99942.31
2018-11-10T02:09:44.052Z,99931.43
2018-11-10T02:12:14.276Z,99936.69
2018-11-10T02:14:42.177Z,99929.98
2018-11-10T02:17:09.865Z,99923.23
2018-11-10T02:19:37.572Z,99918.47
2018-11-10T02:22:05.312Z,99917.56
2018-11-10T02:24:33.097Z,99917.94
2018-11-10T02:27:00.833Z,99914.39
2018-11-10T02:29:28.534Z,99909.98
2018-11-10T02:31:56.252Z,99909.58
2018-11-10T02:34:28.784Z,99904.28
2018-11-10T02:36:56.657Z,99899.91
2018-11-10T02:39:24.373Z,99893.24
2018-11-10T02:41:52.177Z,99887.39
2018-11-10T02:44:19.928Z,99907.81
2018-11-10T02:46:47.597Z,99898.52
2018-11-10T02:49:15.333Z,99898.52
2018-11-10T02:51:42.993Z,99900.14
2018-11-10T02:54:10.681Z,99885.50
2018-11-10T02:56:38.433Z,99883.11
2018-11-10T02:59:06.589Z,99889.18
2018-11-10T03:01:34.237Z,99887.41
2018-11-10T03:04:01.967Z,99893.44
2018-11-10T03:06:29.605Z,99888.81
2018-11-10T03:08:57.356Z,99882.91
2018-11-10T03:11:25.013Z,99875.41
2018-11-10T03:13:52.677Z,99878.17
2018-11-10T03:16:20.459Z,99876.85
2018-11-10T03:18:48.140Z,99871.48
2018-11-10T03:21:15.867Z,99872.40
2018-11-10T03:23:43.628Z,99870.00
2018-11-10T03:26:11.293Z,99868.39
2018-11-10T03:28:39.037Z,99867.85
2018-11-10T03:31:06.721Z,99867.67
2018-11-10T03:33:34.450Z,99868.50
2018-11-10T03:36:02.177Z,99865.86
2018-11-10T03:38:29.933Z,99857.89
2018-11-10T03:40:57.625Z,99857.68
2018-11-10T03:43:25.320Z,99860.73
2018-11-10T03:45:52.992Z,99849.63
2018-11-10T03:48:20.736Z,99841.48
2018-11-10T03:50:48.382Z,99830.33
2018-11-10T03:53:16.072Z,99831.98
2018-11-10T03:55:43.773Z,99825.78
2018-11-10T03:58:11.484Z,99831.23
2018-11-10T04:00:39.208Z,99839.98
2018-11-10T04:03:06.933Z,99848.20
2018-11-10T04:05:34.635Z,99853.91
2018-11-10T04:08:02.380Z,99852.54
2018-11-10T04:10:30.133Z,99859.11
2018-11-10T04:12:57.870Z,99856.37
2018-11-10T04:15:25.714Z,99840.88
2018-11-10T04:17:53.373Z,99830.48
2018-11-10T04:20:21.137Z,99824.57
2018-11-10T04:22:48.881Z,99839.02
2018-11-10T04:25:16.612Z,99851.58
2018-11-10T04:27:44.461Z,99838.31
2018-11-10T04:30:12.125Z,99828.48
2018-11-10T04:32:39.780Z,99830.67
2018-11-10T04:35:07.805Z,99835.22
2018-11-10T04:37:35.723Z,99852.41
2018-11-10T04:40:03.693Z,99850.04
2018-11-10T04:42:31.422Z,99845.16
2018-11-10T04:44:59.108Z,99845.16
2018-11-10T04:47:26.836Z,99853.09
2018-11-10T04:49:54.654Z,99870.28
2018-11-10T04:52:22.221Z,99881.00
2018-11-10T04:54:49.845Z,99878.56
2018-11-10T04:57:17.609Z,99870.14
2018-11-10T04:59:45.285Z,99859.77
2018-11-10T05:02:13.002Z,99866.55
2018-11-10T05:04:40.737Z,99858.23
2018-11-10T05:07:08.443Z,99834.69
2018-11-10T05:09:36.226Z,99826.52
2018-11-10T05:12:04.145Z,99835.05
2018-11-10T05:14:31.838Z,99821.52
2018-11-10T05:16:59.589Z,99837.23
2018-11-10T05:19:27.292Z,99837.42
2018-11-10T05:21:55.001Z,99830.70
2018-11-10T05:24:23.105Z,99827.41
2018-11-10T05:26:50.760Z,99811.30
2018-11-10T05:29:18.493Z,99825.65
2018-11-10T05:31:46.184Z,99849.65
2018-11-10T05:34:13.905Z,99848.86
2018-11-10T05:36:41.588Z,99826.73
2018-11-10T05:39:09.837Z,99834.30
2018-11-10T05:41:37.590Z,99852.34
2018-11-10T05:44:05.305Z,99825.36
2018-11-10T05:46:33.052Z,99817.72
2018-11-10T05:49:00.828Z,99827.16
2018-11-10T05:51:28.589Z,99824.75
2018-11-10T05:53:56.236Z,99826.44
2018-11-10T05:56:23.903Z,99856.36
2018-11-10T05:58:51.624Z,99851.48
2018-11-10T06:01:19.292Z,99871.46
2018-11-10T06:03:46.986Z,99864.07
2018-11-10T06:06:14.628Z,99865.61
2018-11-10T06:08:42.356Z,99852.09
2018-11-10T06:11:10.057Z,99855.10
2018-11-10T06:13:37.784Z,99841.72
2018-11-10T06:16:05.787Z,99830.45
2018-11-10T06:18:33.449Z,99837.27
2018-11-10T06:21:01.118Z,99834.01
2018-11-10T06:23:28.862Z,99827.69
2018-11-10T06:25:56.561Z,99833.68
2018-11-10T06:28:24.197Z,99824.89
2018-11-10T06:30:52.156Z,99821.66
2018-11-10T06:33:19.853Z,99817.25
2018-11-10T06:35:47.560Z,99824.97
2018-11-10T06:38:15.217Z,99819.16
2018-11-10T06:40:42.866Z,99821.66
2018-11-10T06:43:10.513Z,99827.58
2018-11-10T06:45:38.240Z,99821.59
2018-11-10T06:48:06.197Z,99808.50
2018-11-10T06:50:34.309Z,99798.38
2018-11-10T06:53:02.823Z,99807.39
2018-11-10T06:55:30.720Z,99815.81
2018-11-10T06:57:58.685Z,99824.61
2018-11-10T07:00:26.512Z,99839.31
2018-11-10T07:02:54.438Z,99852.69
2018-11-10T07:05:22.377Z,99855.20
2018-11-10T07:07:50.108Z,99847.31
2018-11-10T07:10:17.801Z,99835.33
2018-11-10T07:12:45.507Z,99824.39
2018-11-10T07:15:13.261Z,99804.16
2018-11-10T07:17:41.088Z,99805.88
2018-11-10T07:20:08.802Z,99806.35
2018-11-10T07:22:36.574Z,99817.47
2018-11-10T07:25:05.155Z,99795.98
2018-11-10T07:27:32.832Z,99802.62
2018-11-10T07:30:00.473Z,99800.18
2018-11-10T07:32:28.903Z,99806.81
2018-11-10T07:34:56.615Z,99799.68
2018-11-10T07:37:24.405Z,99806.20
2018-11-10T07:39:53.128Z,99808.06
2018-11-10T07:42:21.737Z,99811.63
2018-11-10T07:44:49.428Z,99816.53
2018-11-10T07:47:17.832Z,99826.98
2018-11-10T07:49:46.236Z,99814.23
2018-11-10T07:52:13.925Z,99819.91
2018-11-10T07:54:41.605Z,99818.64
2018-11-10T07:57:09.328Z,99810.21
2018-11-10T07:59:36.988Z,99800.41
2018-11-10T08:02:04.972Z,99800.70
2018-11-10T08:04:32.606Z,99807.23
2018-11-10T08:07:00.293Z,99802.20
2018-11-10T08:09:27.988Z,99808.55
2018-11-10T08:11:55.652Z,99802.33
2018-11-10T08:14:23.359Z,99797.32
2018-11-10T08:16:51.810Z,99794.49
2018-11-10T08:19:19.528Z,99792.30
2018-11-10T08:21:47.764Z,99793.67
2018-11-10T08:24:15.409Z,99803.31
2018-11-10T08:26:43.125Z,99801.75
2018-11-10T08:29:10.916Z,99806.54
2018-11-10T08:31:38.761Z,99801.71
2018-11-10T08:34:06.510Z,99798.55
2018-11-10T08:36:34.213Z,99801.03
2018-11-10T08:39:02.346Z,99791.81
2018-11-10T08:41:29.999Z,99805.34
2018-11-10T08:43:58.074Z,99800.29
2018-11-10T08:46:25.735Z,99798.73
2018-11-10T08:48:53.580Z,99791.58
2018-11-10T08:51:21.244Z,99793.86
2018-11-10T08:53:48.977Z,99792.20
2018-11-10T08:56:17.221Z,99797.13
2018-11-10T08:58:48.652Z,99801.88
2018-11-10T09:01:16.948Z,99795.77
2018-11-10T09:03:45.736Z,99792.01
2018-11-10T09:06:13.452Z,99793.42
2018-11-10T09:08:41.325Z,99795.93
2018-11-10T09:11:09.229Z,99799.23
2018-11-10T09:13:37.006Z,99801.22
2018-11-10T09:16:04.783Z,99805.63
2018-11-10T09:18:32.461Z,99801.86
2018-11-10T09:21:00.264Z,99801.68
2018-11-10T09:23:28.040Z,99793.42
2018-11-10T09:25:55.791Z,99794.61
2018-11-10T09:28:23.462Z,99798.27
2018-11-10T09:30:51.266Z,99788.31
2018-11-10T09:33:18.925Z,99786.52
2018-11-10T09:35:46.664Z,99795.07
2018-11-10T09:38:14.373Z,99797.88
2018-11-10T09:40:42.085Z,99795.58
2018-11-10T09:43:09.794Z,99794.81
2018-11-10T09:45:37.516Z,99801.77
2018-11-10T09:48:05.566Z,99796.63
2018-11-10T09:50:33.320Z,99798.39
2018-11-10T09:53:01.039Z,99795.73
2018-11-10T09:55:28.734Z,99796.13
2018-11-10T09:57:56.405Z,99799.53
2018-11-10T10:00:24.135Z,99793.57
2018-11-10T10:02:51.989Z,99798.51
2018-11-10T10:05:19.516Z,99795.75
2018-11-10T10:07:47.192Z,99798.62
2018-11-10T10:10:16.377Z,99806.56
2018-11-10T10:12:44.592Z,99807.48
2018-11-10T10:15:13.624Z,99801.00
2018-11-10T10:17:42.416Z,99795.16
2018-11-10T10:20:13.180Z,99791.14
2018-11-10T10:22:41.104Z,99782.56
2018-11-10T10:25:12.460Z,99778.52
2018-11-10T10:27:40.229Z,99775.51
2018-11-10T10:30:14.237Z,99775.05
2018-11-10T10:32:42.633Z,99765.72
2018-11-10T10:35:10.720Z,99763.58
2018-11-10T10:37:38.380Z,99768.28
2018-11-10T10:40:08.358Z,99752.95
2018-11-10T10:42:36.130Z,99752.96
2018-11-10T10:45:05.448Z,99754.08
2018-11-10T10:47:33.103Z,99760.13
2018-11-10T10:50:00.820Z,99758.80
2018-11-10T10:52:28.629Z,99757.98
2018-11-10T10:54:56.345Z,99751.11
2018-11-10T10:57:24.077Z,99758.52
2018-11-10T10:59:51.737Z,99748.06
2018-11-10T11:02:25.077Z,99749.17
2018-11-10T11:04:54.117Z,99746.40
2018-11-10T11:07:22.785Z,99748.04
2018-11-10T11:09:50.457Z,99743.38
2018-11-10T11:12:18.156Z,99734.84
2018-11-10T11:14:45.810Z,99728.50
2018-11-10T11:17:13.515Z,99727.91
2018-11-10T11:19:41.345Z,99722.94
2018-11-10T11:22:09.046Z,99717.17
2018-11-10T11:24:37.212Z,99714.65
2018-11-10T11:27:05.194Z,99708.33
2018-11-10T11:29:36.454Z,99712.72
2018-11-10T11:32:04.988Z,99711.36
2018-11-10T11:34:32.745Z,99715.24
2018-11-10T11:37:00.501Z,99719.64
2018-11-10T11:39:28.238Z,99716.88
2018-11-10T11:41:55.938Z,99719.31
2018-11-10T11:44:23.584Z,99725.10
2018-11-10T11:46:51.284Z,99715.22
2018-11-10T11:49:18.985Z,99717.96
2018-11-10T11:51:46.668Z,99713.22
2018-11-10T11:54:14.333Z,99722.04
2018-11-10T11:56:42.147Z,99719.29
2018-11-10T11:59:09.773Z,99724.53
2018-11-10T12:01:37.470Z,99719.84
2018-11-10T12:04:05.369Z,99717.91
2018-11-10T12:06:33.088Z,99719.84
2018-11-10T12:09:00.852Z,99719.47
2018-11-10T12:11:28.688Z,99715.34
2018-11-10T12:13:56.396Z,99716.63
2018-11-10T12:16:27.637Z,99711.66
2018-11-10T12:18:51.832Z,99706.89
2018-11-10T12:21:19.549Z,99701.09
2018-11-10T12:23:47.312Z,99698.61
2018-11-10T12:26:14.996Z,99696.58
2018-11-10T12:28:42.915Z,99691.14
2018-11-10T12:31:10.694Z,99688.55
2018-11-10T12:33:38.377Z,99686.74
2018-11-10T12:36:06.224Z,99688.70
2018-11-10T12:38:33.994Z,99692.80
2018-11-10T12:41:01.701Z,99686.41
2018-11-10T12:43:29.362Z,99677.04
2018-11-10T12:45:57.272Z,99668.91
2018-11-10T12:48:24.988Z,99672.65
2018-11-10T12:50:52.674Z,99667.89
2018-11-10T12:53:20.425Z,99670.31
2018-11-10T12:55:48.145Z,99657.55
2018-11-10T12:58:15.823Z,99657.02
2018-11-10T13:00:43.516Z,99660.52
2018-11-10T13:03:11.225Z,99653.12
2018-11-10T13:05:38.952Z,99651.22
2018-11-10T13:08:06.645Z,99650.02
2018-11-10T13:10:34.442Z,99646.11
2018-11-10T13:13:02.145Z,99648.95
2018-11-10T13:15:30.177Z,99655.31
2018-11-10T13:17:57.912Z,99655.58
2018-11-10T13:20:25.633Z,99653.60
2018-11-10T13:22:53.255Z,99652.59
2018-11-10T13:25:20.987Z,99653.12
2018-11-10T13:27:48.669Z,99646.12
2018-11-10T13:30:16.284Z,99645.92
2018-11-10T13:32:43.996Z,99643.80
2018-11-10T13:35:11.819Z,99652.09
2018-11-10T13:37:40.044Z,99639.59
2018-11-10T13:40:08.429Z,99636.05
2018-11-10T13:42:36.176Z,99637.82
2018-11-10T13:45:05.070Z,99634.72
2018-11-10T13:47:32.797Z,99625.46
2018-11-10T13:50:01.309Z,99631.30
2018-11-10T13:52:29.304Z,99623.62
2018-11-10T13:54:56.697Z,99618.89
2018-11-10T13:57:24.767Z,99619.75
2018-11-10T13:59:52.459Z,99620.54
2018-11-10T14:02:20.133Z,99618.64
2018-11-10T14:04:47.812Z,99616.69
2018-11-10T14:07:15.452Z,99614.20
2018-11-10T14:09:43.069Z,99608.93
2018-11-10T14:12:10.754Z,99605.33
2018-11-10T14:14:38.396Z,99606.20
2018-11-10T14:17:06.152Z,99601.02
2018-11-10T14:19:33.960Z,99599.38
2018-11-10T14:22:01.617Z,99599.19
2018-11-10T14:24:29.367Z,99608.85
2018-11-10T14:26:57.078Z,99604.23
2018-11-10T14:29:24.773Z,99619.05
2018-11-10T14:31:52.434Z,99621.84
2018-11-10T14:34:20.094Z,99616.11
2018-11-10T14:36:47.858Z,99616.96
2018-11-10T14:39:15.593Z,99616.14
2018-11-10T14:41:43.377Z,99627.44
2018-11-10T14:44:11.162Z,99623.64
2018-11-10T14:46:38.848Z,99630.81
2018-11-10T14:49:07.117Z,99632.72
2018-11-10T14:51:34.923Z,99630.24
2018-11-10T14:54:02.925Z,99626.13
2018-11-10T14:56:30.620Z,99633.02
2018-11-10T14:58:58.326Z,99630.53
2018-11-10T15:01:26.080Z,99630.83
2018-11-10T15:03:53.770Z,99634.67
2018-11-10T15:06:21.541Z,99649.20
2018-11-10T15:08:49.209Z,99651.64
2018-11-10T15:11:16.860Z,99652.47
2018-11-10T15:13:44.600Z,99648.89
2018-11-10T15:16:12.248Z,99651.36
2018-11-10T15:18:39.864Z,99651.60
2018-11-10T15:21:07.615Z,99655.42
2018-11-10T15:23:35.268Z,99657.59
2018-11-10T15:26:02.947Z,99664.17
2018-11-10T15:28:30.630Z,99666.89
2018-11-10T15:30:58.297Z,99675.36
2018-11-10T15:33:25.988Z,99676.77
2018-11-10T15:35:53.633Z,99683.31
2018-11-10T15:38:21.572Z,99687.39
2018-11-10T15:40:49.298Z,99687.36
2018-11-10T15:43:17.021Z,99688.73
2018-11-10T15:45:44.708Z,99688.97
2018-11-10T15:48:12.426Z,99691.41
2018-11-10T15:50:40.217Z,99685.92
2018-11-10T15:53:07.833Z,99688.36
2018-11-10T15:55:35.510Z,99685.86
2018-11-10T15:58:03.199Z,99685.82
2018-11-10T16:00:30.848Z,99683.86
2018-11-10T16:02:58.573Z,99686.33
2018-11-10T16:05:26.309Z,99684.92
2018-11-10T16:07:53.948Z,99684.14
2018-11-10T16:10:21.840Z,99675.33
2018-11-10T16:12:49.461Z,99675.30
2018-11-10T16:15:17.701Z,99681.86
2018-11-10T16:17:45.453Z,99680.48
2018-11-10T16:20:15.108Z,99686.78
2018-11-10T16:22:44.182Z,99665.39
2018-11-10T16:25:11.846Z,99671.95
2018-11-10T16:27:43.927Z,99666.44
2018-11-10T16:30:13.268Z,99656.86
2018-11-10T16:32:41.108Z,99658.23
2018-11-10T16:35:09.068Z,99661.23
2018-11-10T16:37:36.760Z,99665.06
2018-11-10T16:40:07.890Z,99666.13
2018-11-10T16:42:35.865Z,99664.75
2018-11-10T16:45:03.937Z,99659.54
2018-11-10T16:47:31.673Z,99656.21
2018-11-10T16:49:59.373Z,99659.78
2018-11-10T16:52:27.084Z,99658.68
2018-11-10T16:54:54.825Z,99663.88
2018-11-10T16:57:22.477Z,99659.23
2018-11-10T16:59:50.128Z,99660.05
2018-11-10T17:02:17.900Z,99661.13
2018-11-10T17:04:45.561Z,99660.88
2018-11-10T17:07:13.321Z,99655.67
2018-11-10T17:09:40.972Z,99650.73
2018-11-10T17:12:08.733Z,99650.69
2018-11-10T17:14:36.500Z,99644.63
2018-11-10T17:17:04.579Z,99625.47
2018-11-10T17:19:32.223Z,99624.66
2018-11-10T17:22:00.043Z,99635.31
2018-11-10T17:24:27.609Z,99636.37
2018-11-10T17:26:55.294Z,99634.22
2018-11-10T17:29:22.989Z,99625.46
2018-11-10T17:31:50.769Z,99646.21
2018-11-10T17:34:18.562Z,99627.06
2018-11-10T17:36:46.285Z,99628.42
2018-11-10T17:39:14.137Z,99627.02
2018-11-10T17:41:41.753Z,99628.38
2018-11-10T17:44:10.028Z,99619.40
2018-11-10T17:46:37.649Z,99619.67
2018-11-10T17:49:05.464Z,99618.57
2018-11-10T17:51:33.207Z,99621.36
2018-11-10T17:54:00.909Z,99619.40
2018-11-10T17:56:28.848Z,99620.77
2018-11-10T17:58:56.552Z,99622.45
2018-11-10T18:01:24.218Z,99618.91
2018-11-10T18:03:51.892Z,99618.36
2018-11-10T18:06:19.532Z,99612.93
2018-11-10T18:08:47.290Z,99611.83
2018-11-10T18:11:15.105Z,99614.57
2018-11-10T18:13:42.864Z,99622.82
2018-11-10T18:16:10.701Z,99625.56
2018-11-10T18:18:38.452Z,99620.09
2018-11-10T18:21:06.141Z,99629.70
2018-11-10T18:23:33.925Z,99629.44
2018-11-10T18:26:01.623Z,99640.94
2018-11-10T18:28:29.290Z,99630.27
2018-11-10T18:30:57.035Z,99621.23
2018-11-10T18:33:24.760Z,99629.20
2018-11-10T18:35:52.503Z,99612.78
2018-11-10T18:38:20.229Z,99621.27
2018-11-10T18:40:48.144Z,99616.92
2018-11-10T18:43:15.868Z,99614.20
2018-11-10T18:45:43.493Z,99613.92
2018-11-10T18:48:11.327Z,99614.77
2018-11-10T18:50:39.000Z,99621.59
2018-11-10T18:53:06.679Z,99621.34
2018-11-10T18:55:34.337Z,99628.19
2018-11-10T18:58:02.121Z,99634.22
2018-11-10T19:00:29.697Z,99629.25
2018-11-10T19:02:57.650Z,99636.92
2018-11-10T19:05:25.322Z,99632.22
2018-11-10T19:07:53.100Z,99633.86
2018-11-10T19:10:20.865Z,99626.75
2018-11-10T19:12:48.810Z,99626.47
2018-11-10T19:15:18.539Z,99626.16
2018-11-10T19:17:46.345Z,99628.34
2018-11-10T19:20:14.606Z,99619.31
2018-11-10T19:22:42.315Z,99620.67
2018-11-10T19:25:11.577Z,99625.06
2018-11-10T19:27:39.321Z,99629.71
2018-11-10T19:30:11.078Z,99629.72
2018-11-10T19:32:38.730Z,99630.81
2018-11-10T19:35:06.492Z,99638.75
2018-11-10T19:37:34.148Z,99637.65
2018-11-10T19:40:01.960Z,99644.48
2018-11-10T19:42:29.748Z,99650.78
2018-11-10T19:44:57.540Z,99662.01
2018-11-10T19:47:25.264Z,99655.71
2018-11-10T19:49:52.925Z,99654.62
2018-11-10T19:52:20.558Z,99643.67
2018-11-10T19:54:48.324Z,99643.94
2018-11-10T19:57:16.364Z,99653.24
2018-11-10T19:59:44.041Z,99654.34
2018-11-10T20:02:13.889Z,99650.23
2018-11-10T20:04:41.621Z,99660.64
2018-11-10T20:07:09.369Z,99655.71
2018-11-10T20:09:37.205Z,99654.07
2018-11-10T20:12:17.641Z,99655.98
2018-11-10T20:14:45.310Z,99651.88
2018-11-10T20:17:13.013Z,99658.99
2018-11-10T20:19:41.983Z,99658.45
2018-11-10T20:22:09.551Z,99666.94
2018-11-10T20:24:41.311Z,99667.48
2018-11-10T20:27:09.129Z,99671.87
2018-11-10T20:29:36.821Z,99669.95
2018-11-10T20:32:04.673Z,99661.20
2018-11-10T20:34:32.381Z,99662.33
2018-11-10T20:37:00.125Z,99661.52
2018-11-10T20:39:27.810Z,99660.77
2018-11-10T20:41:55.488Z,99661.32
2018-11-10T20:44:23.257Z,99666.80
2018-11-10T20:46:50.949Z,99669.03
2018-11-10T20:49:19.129Z,99665.48
2018-11-10T20:51:46.820Z,99672.08
2018-11-10T20:54:14.538Z,99665.23
2018-11-10T20:56:43.049Z,99666.88
2018-11-10T20:59:12.007Z,99670.20
2018-11-10T21:01:39.734Z,99671.03
2018-11-10T21:04:09.334Z,99668.56
2018-11-10T21:06:38.839Z,99676.51
2018-11-10T21:09:15.728Z,99678.46
2018-11-10T21:11:43.624Z,99671.65
2018-11-10T21:14:11.368Z,99673.84
2018-11-10T21:16:39.211Z,99673.84
2018-11-10T21:19:08.613Z,99670.83
2018-11-10T21:21:37.123Z,99683.19
2018-11-10T21:24:05.405Z,99682.91
2018-11-10T21:26:33.134Z,99690.59
2018-11-10T21:29:01.084Z,99694.15
2018-11-10T21:31:28.743Z,99694.21
2018-11-10T21:33:56.512Z,99690.38
2018-11-10T21:36:24.104Z,99693.70
2018-11-10T21:38:51.814Z,99685.72
2018-11-10T21:41:19.898Z,99677.80
2018-11-10T21:43:47.836Z,99672.05
2018-11-10T21:46:15.535Z,99659.98
2018-11-10T21:51:15.612Z,99661.08
2018-11-10T21:53:47.889Z,99658.07
2018-11-10T21:56:15.747Z,99649.58
2018-11-10T21:58:44.205Z,99655.60
2018-11-10T22:01:12.393Z,99650.13
2018-11-10T22:03:40.353Z,99649.84
2018-11-10T22:06:08.162Z,99644.37
2018-11-10T22:08:35.816Z,99650.09
2018-11-10T22:11:04.228Z,99651.47
2018-11-10T22:13:31.942Z,99658.86
2018-11-10T22:15:59.780Z,99653.05
2018-11-10T22:18:27.369Z,99651.41
2018-11-10T22:20:55.396Z,99647.02
2018-11-10T22:23:23.320Z,99648.36
2018-11-10T22:25:51.158Z,99652.20
2018-11-10T22:28:19.420Z,99662.05
2018-11-10T22:30:47.070Z,99672.70
2018-11-10T22:33:14.916Z,99669.97
2018-11-10T22:35:42.633Z,99668.33
2018-11-10T22:38:10.248Z,99675.96
2018-11-10T22:40:37.930Z,99673.22
2018-11-10T22:43:06.580Z,99660.86
2018-11-10T22:45:34.488Z,99655.11
2018-11-10T22:48:02.397Z,99653.97
2018-11-10T22:50:30.052Z,99655.92
2018-11-10T22:52:57.712Z,99652.88
2018-11-10T22:55:25.817Z,99651.51
2018-11-10T22:57:53.593Z,99661.64
2018-11-10T23:00:28.165Z,99666.84
2018-11-10T23:02:58.406Z,99669.30
2018-11-10T23:05:27.214Z,99671.22
2018-11-10T23:07:55.193Z,99658.31
2018-11-10T23:10:23.233Z,99672.00
2018-11-10T23:12:51.901Z,99674.20
2018-11-10T23:15:19.589Z,99669.81
2018-11-10T23:17:47.870Z,99671.73
2018-11-10T23:20:17.407Z,99679.40
2018-11-10T23:22:45.232Z,99684.05
2018-11-10T23:25:14.125Z,99691.44
2018-11-10T23:27:41.873Z,99692.27
2018-11-10T23:30:14.893Z,99693.63
2018-11-10T23:32:42.553Z,99700.48
2018-11-10T23:35:10.834Z,99706.22
2018-11-10T23:37:38.805Z,99711.70
2018-11-10T23:40:09.417Z,99720.74
2018-11-10T23:42:37.247Z,99732.80
2018-11-10T23:45:06.382Z,99747.58
2018-11-10T23:47:34.178Z,99760.49
2018-11-10T23:50:01.985Z,99751.46
2018-11-10T23:52:29.704Z,99752.01
2018-11-10T23:54:57.903Z,99749.81
2018-11-10T23:57:26.117Z,99743.25
2018-11-10T23:59:53.848Z,99742.42
